Time;durP1;ratioP1;P1;durP2;ratioP2;P2;SDS_P1;SDS_P2;PMS_P1;PMS_P2;Temp;Humidity;BMP_temperature;BMP_pressure;BME280_temperature;BME280_humidity;BME280_pressure;Samples;Min_cycle;Max_cycle;Signal;HPM_P1;HPM_P2
2021/03/11 00:01:12;;;;;;;41.90;20.55;;;;;;;-5.99;66.40;100439.39;1711283;83;21199;-64
2021/03/11 00:03:40;;;;;;;41.65;21.87;;;;;;;-6.06;66.74;100433.83;1700153;83;21594;-64
2021/03/11 00:06:07;;;;;;;42.48;21.35;;;;;;;-6.04;67.20;100432.37;1699827;83;21135;-64
2021/03/11 00:08:34;;;;;;;46.37;22.55;;;;;;;-5.99;67.49;100432.77;1696828;83;21195;-63
2021/03/11 00:11:02;;;;;;;46.02;21.85;;;;;;;-5.95;67.52;100432.78;1699243;84;21659;-64
2021/03/11 00:13:30;;;;;;;44.50;21.80;;;;;;;-5.93;67.58;100429.52;1693981;83;21173;-65
2021/03/11 00:15:58;;;;;;;49.88;24.35;;;;;;;-5.93;67.42;100426.86;1726371;82;21137;-65
2021/03/11 00:18:25;;;;;;;49.50;24.55;;;;;;;-6.00;67.19;100425.78;1720764;83;21150;-64
2021/03/11 00:20:53;;;;;;;51.42;25.82;;;;;;;-6.06;67.22;100418.44;1712077;83;21639;-64
2021/03/11 00:23:22;;;;;;;54.48;26.62;;;;;;;-6.16;67.43;100422.45;1676160;84;21197;-64
2021/03/11 00:25:51;;;;;;;54.27;28.02;;;;;;;-6.21;67.58;100417.27;1702872;84;21314;-64
2021/03/11 00:28:18;;;;;;;50.45;26.57;;;;;;;-6.26;67.73;100417.70;1716569;83;21533;-64
2021/03/11 00:30:45;;;;;;;55.25;29.27;;;;;;;-6.29;67.90;100422.46;1717581;83;21200;-64
2021/03/11 00:33:12;;;;;;;54.98;28.90;;;;;;;-6.29;68.14;100422.46;1713250;83;21585;-64
2021/03/11 00:35:40;;;;;;;56.70;30.02;;;;;;;-6.28;68.35;100428.11;1693269;83;21615;-64
2021/03/11 00:38:08;;;;;;;56.08;28.57;;;;;;;-6.29;68.52;100423.30;1709004;83;21307;-64
2021/03/11 00:40:36;;;;;;;56.23;27.87;;;;;;;-6.32;68.70;100422.76;1716322;83;21157;-64
2021/03/11 00:43:03;;;;;;;60.50;30.08;;;;;;;-6.30;69.18;100419.45;1694524;83;21302;-64
2021/03/11 00:45:30;;;;;;;58.65;29.50;;;;;;;-6.20;69.38;100419.75;1715404;83;21118;-64
2021/03/11 00:47:58;;;;;;;58.25;28.87;;;;;;;-6.11;69.52;100422.85;1721837;83;21190;-64
2021/03/11 00:50:26;;;;;;;57.83;30.32;;;;;;;-6.01;69.45;100422.78;1697004;84;21577;-64
2021/03/11 00:52:53;;;;;;;63.55;30.45;;;;;;;-5.95;69.26;100415.55;1688824;84;21200;-64
2021/03/11 00:55:22;;;;;;;61.48;30.90;;;;;;;-5.92;69.26;100408.66;1678126;84;21145;-63
2021/03/11 00:57:51;;;;;;;63.00;31.57;;;;;;;-5.90;69.20;100405.34;1661561;85;21209;-64
2021/03/11 01:00:22;;;;;;;59.67;30.65;;;;;;;-5.90;68.83;100405.34;1659505;86;21637;-64
2021/03/11 01:03:00;;;;;;;59.13;30.92;;;;;;;-5.89;68.69;100396.91;1814366;79;22999;-62
2021/03/11 01:05:30;;;;;;;62.08;31.85;;;;;;;-5.97;68.67;100395.48;1741698;81;21177;-63
2021/03/11 01:07:59;;;;;;;54.45;29.57;;;;;;;-5.96;68.98;100393.19;1761062;80;21636;-64
2021/03/11 01:12:14;;;;;;;64.65;30.82;;;;;;;-5.90;69.27;100385.46;1817833;79;22655;-64
2021/03/11 01:14:45;;;;;;;61.83;30.77;;;;;;;-6.01;69.20;100384.34;1764807;80;21196;-65
2021/03/11 01:17:12;;;;;;;59.77;31.12;;;;;;;-6.06;69.26;100381.33;1755132;81;21133;-64
2021/03/11 01:19:40;;;;;;;56.50;29.55;;;;;;;-6.04;69.50;100378.02;1758568;81;21172;-65
2021/03/11 01:22:08;;;;;;;57.93;31.73;;;;;;;-5.98;69.51;100384.05;1746758;80;21643;-62
2021/03/11 01:24:35;;;;;;;58.68;31.10;;;;;;;-5.94;69.46;100379.27;1744674;81;21156;-63
2021/03/11 01:27:03;;;;;;;60.30;32.42;;;;;;;-5.91;69.60;100384.27;1735966;81;21192;-62
2021/03/11 01:29:31;;;;;;;61.10;31.55;;;;;;;-5.91;69.46;100384.27;1744264;81;21165;-63
2021/03/11 01:31:59;;;;;;;63.78;32.95;;;;;;;-5.92;69.18;100379.48;1717718;81;21169;-62
2021/03/11 01:34:27;;;;;;;64.15;33.65;;;;;;;-5.93;68.96;100384.92;1691167;85;21203;-63
2021/03/11 01:36:55;;;;;;;66.85;35.23;;;;;;;-5.99;68.82;100389.03;1689557;84;21178;-63
2021/03/11 01:39:23;;;;;;;68.28;33.35;;;;;;;-6.07;68.92;100386.28;1677581;84;21188;-63
2021/03/11 01:41:50;;;;;;;63.52;34.23;;;;;;;-6.11;69.04;100391.53;1682439;84;21449;-63
2021/03/11 01:44:17;;;;;;;68.02;35.60;;;;;;;-6.17;68.97;100391.66;1681149;84;21188;-62
2021/03/11 01:46:45;;;;;;;66.82;36.20;;;;;;;-6.21;68.98;100390.77;1688362;84;21173;-63
2021/03/11 01:49:12;;;;;;;65.35;34.70;;;;;;;-6.21;68.95;100400.05;1697532;84;21196;-63
2021/03/11 01:51:40;;;;;;;59.55;34.20;;;;;;;-6.22;69.00;100400.52;1689057;84;21180;-63
2021/03/11 01:54:08;;;;;;;68.42;35.73;;;;;;;-6.19;69.09;100398.06;1690163;83;21192;-63
2021/03/11 01:56:35;;;;;;;68.35;36.33;;;;;;;-6.18;68.94;100395.77;1646762;86;21200;-63
2021/03/11 01:59:02;;;;;;;66.97;34.88;;;;;;;-6.28;69.01;100401.61;1681238;84;21231;-63
2021/03/11 02:01:30;;;;;;;61.55;33.00;;;;;;;-6.34;69.10;100403.02;1697712;84;21482;-63
2021/03/11 02:03:59;;;;;;;67.37;34.08;;;;;;;-6.35;69.04;100396.56;1670272;85;21190;-63
2021/03/11 02:06:26;;;;;;;62.88;33.67;;;;;;;-6.33;69.20;100393.27;1692734;85;21175;-63
2021/03/11 02:08:54;;;;;;;63.90;33.08;;;;;;;-6.32;69.13;100391.80;1692097;84;21193;-63
2021/03/11 02:11:26;;;;;;;64.47;34.33;;;;;;;-6.34;68.83;100391.09;1680735;84;21637;-63
2021/03/11 02:14:32;;;;;;;64.00;34.55;;;;;;;-6.40;68.71;100397.00;1681193;83;21677;-63
2021/03/11 02:17:01;;;;;;;65.40;33.78;;;;;;;-6.44;68.64;100399.59;1599189;89;21213;-63
2021/03/11 02:20:04;;;;;;;65.78;33.15;;;;;;;-6.55;68.37;100405.91;1664724;86;21172;-63
2021/03/11 02:23:06;;;;;;;64.67;33.30;;;;;;;-6.73;68.25;100400.23;1697028;82;21624;-64
2021/03/11 02:25:57;;;;;;;64.17;32.25;;;;;;;-6.90;68.37;100406.25;1750421;80;21141;-63
2021/03/11 02:29:05;;;;;;;62.88;31.12;;;;;;;-7.00;69.01;100405.45;1695405;83;21224;-63
2021/03/11 02:31:36;;;;;;;61.68;31.48;;;;;;;-7.08;69.44;100406.16;1740755;82;21143;-64
2021/03/11 02:34:22;;;;;;;59.88;32.33;;;;;;;-7.03;70.67;100413.68;1739027;81;21234;-64
2021/03/11 02:36:53;;;;;;;62.67;31.33;;;;;;;-6.92;71.11;100411.70;1741051;81;21170;-62
2021/03/11 02:39:23;;;;;;;65.78;34.40;;;;;;;-6.80;71.02;100417.67;1705691;84;21246;-64
2021/03/11 02:41:51;;;;;;;65.00;32.83;;;;;;;-6.74;70.71;100423.22;1717884;82;21169;-64
2021/03/11 02:44:19;;;;;;;61.00;31.50;;;;;;;-6.67;70.81;100415.53;1740982;82;21157;-63
2021/03/11 02:46:46;;;;;;;58.92;30.75;;;;;;;-6.60;71.09;100422.75;1744409;81;21298;-63
2021/03/11 02:49:14;;;;;;;61.05;29.60;;;;;;;-6.49;71.19;100418.24;1709521;81;21625;-63
2021/03/11 02:51:41;;;;;;;57.60;30.00;;;;;;;-6.41;70.99;100414.38;1700859;84;21212;-63
2021/03/11 02:54:09;;;;;;;55.48;29.70;;;;;;;-6.37;71.02;100414.41;1704647;84;21239;-63
2021/03/11 02:56:39;;;;;;;59.75;28.73;;;;;;;-6.31;70.89;100416.48;1672476;85;21170;-63
2021/03/11 02:59:07;;;;;;;56.18;27.52;;;;;;;-6.27;70.49;100417.86;1662358;85;21128;-63
2021/03/11 03:01:35;;;;;;;58.08;29.42;;;;;;;-6.33;69.99;100419.27;1673674;85;21206;-64
2021/03/11 03:04:03;;;;;;;56.90;29.05;;;;;;;-6.41;70.19;100418.36;1673561;85;21583;-63
2021/03/11 03:06:31;;;;;;;58.28;30.05;;;;;;;-6.49;70.29;100415.59;1684091;85;21321;-63
2021/03/11 03:08:59;;;;;;;64.40;29.52;;;;;;;-6.56;70.47;100412.22;1680895;85;21119;-63
2021/03/11 03:11:26;;;;;;;62.20;29.98;;;;;;;-6.60;70.64;100410.00;1672076;85;21187;-63
2021/03/11 03:13:54;;;;;;;61.75;28.85;;;;;;;-6.68;70.76;100406.75;1664208;85;21370;-63
2021/03/11 03:16:23;;;;;;;61.28;31.25;;;;;;;-6.70;70.93;100412.69;1660395;86;21205;-63
2021/03/11 03:18:51;;;;;;;65.30;30.37;;;;;;;-6.72;71.09;100408.50;1704959;83;21181;-63
2021/03/11 03:21:19;;;;;;;64.65;31.02;;;;;;;-6.76;71.54;100405.30;1663870;85;21664;-64
2021/03/11 03:23:46;;;;;;;64.82;31.00;;;;;;;-6.81;71.75;100408.89;1677911;85;21126;-64
2021/03/11 03:26:13;;;;;;;68.05;31.05;;;;;;;-6.99;71.91;100380.18;1674487;85;21205;-64
2021/03/11 03:28:44;;;;;;;65.57;31.68;;;;;;;-6.81;72.03;100410.70;1674194;85;21150;-64
2021/03/11 03:31:11;;;;;;;60.98;31.37;;;;;;;-6.84;72.06;100403.89;1676960;85;21210;-65
2021/03/11 03:33:39;;;;;;;67.27;30.23;;;;;;;-6.86;72.03;100407.16;1686980;85;21370;-64
2021/03/11 03:36:10;;;;;;;63.45;30.52;;;;;;;-6.83;71.98;100409.99;1719025;83;21600;-64
2021/03/11 03:38:38;;;;;;;58.95;30.10;;;;;;;-6.85;72.10;100410.16;1720908;82;21634;-65
2021/03/11 03:41:06;;;;;;;58.52;29.25;;;;;;;-6.86;72.09;100405.83;1735579;82;21189;-65
2021/03/11 03:43:34;;;;;;;59.55;29.05;;;;;;;-6.84;71.95;100405.22;1741215;82;21246;-64
2021/03/11 03:46:14;;;;;;;58.70;29.07;;;;;;;-6.83;71.96;100409.99;1739050;82;21608;-64
2021/03/11 03:48:52;;;;;;;63.35;29.95;;;;;;;-6.85;71.96;100406.19;1738952;82;21149;-64
2021/03/11 03:51:27;;;;;;;63.83;29.98;;;;;;;-6.85;71.90;100411.48;1739233;82;21573;-64
2021/03/11 03:54:11;;;;;;;64.00;29.55;;;;;;;-6.84;71.78;100406.54;1734773;82;21146;-63
2021/03/11 03:56:41;;;;;;;60.10;30.68;;;;;;;-6.82;71.66;100409.86;1724476;82;21646;-64
2021/03/11 03:59:12;;;;;;;64.75;30.02;;;;;;;-6.80;71.47;100407.09;1731220;82;21122;-64
2021/03/11 04:01:40;;;;;;;61.18;29.65;;;;;;;-6.81;71.42;100413.34;1731840;82;21169;-64
2021/03/11 04:04:09;;;;;;;60.52;30.65;;;;;;;-6.99;71.41;100382.83;1738823;82;21695;-64
2021/03/11 04:06:39;;;;;;;62.48;29.87;;;;;;;-6.81;71.36;100421.30;1758612;81;21614;-64
2021/03/11 04:09:11;;;;;;;63.52;29.52;;;;;;;-6.80;71.19;100419.80;1742581;81;21133;-64
2021/03/11 04:11:39;;;;;;;60.45;30.57;;;;;;;-6.80;70.99;100421.64;1734840;82;21177;-64
2021/03/11 04:14:07;;;;;;;57.55;29.72;;;;;;;-6.81;70.95;100423.94;1682200;83;21171;-64
2021/03/11 04:16:34;;;;;;;65.65;31.27;;;;;;;-6.85;71.06;100420.74;1724827;82;21650;-65
2021/03/11 04:19:02;;;;;;;58.48;29.52;;;;;;;-6.89;71.19;100420.69;1715205;82;21169;-65
2021/03/11 04:21:30;;;;;;;60.92;29.72;;;;;;;-6.87;71.16;100416.58;1715256;82;21646;-64
2021/03/11 04:23:58;;;;;;;61.92;30.23;;;;;;;-6.88;71.30;100421.52;1745704;82;21161;-64
2021/03/11 04:26:29;;;;;;;61.42;30.05;;;;;;;-6.91;71.45;100423.98;1717327;82;21193;-65
2021/03/11 04:28:57;;;;;;;58.65;29.35;;;;;;;-6.90;71.51;100428.27;1743761;82;21145;-66
2021/03/11 04:31:25;;;;;;;65.17;31.07;;;;;;;-6.89;71.53;100425.98;1744538;82;21173;-64
2021/03/11 04:33:53;;;;;;;59.05;31.50;;;;;;;-6.88;71.67;100426.81;1746526;82;21618;-65
2021/03/11 04:36:21;;;;;;;61.42;29.70;;;;;;;-6.87;71.77;100421.36;1743333;81;21616;-65
2021/03/11 04:38:48;;;;;;;65.37;30.20;;;;;;;-6.86;71.79;100425.69;1744936;81;21191;-62
2021/03/11 04:41:17;;;;;;;63.70;31.33;;;;;;;-6.82;71.73;100427.07;1739233;82;21191;-62
2021/03/11 04:43:44;;;;;;;74.40;34.73;;;;;;;-6.82;71.79;100435.50;1748460;82;21649;-63
2021/03/11 04:46:13;;;;;;;75.45;35.70;;;;;;;-6.80;71.85;100432.23;1741907;82;21371;-62
2021/03/11 04:48:41;;;;;;;70.40;33.23;;;;;;;-6.76;71.87;100434.42;1693202;83;21180;-64
2021/03/11 04:51:08;;;;;;;65.87;33.15;;;;;;;-6.69;71.78;100432.03;1750969;82;21168;-64
2021/03/11 04:53:36;;;;;;;67.12;34.13;;;;;;;-6.63;71.71;100432.80;1745924;82;21650;-63
2021/03/11 04:56:05;;;;;;;73.72;36.88;;;;;;;-6.59;71.68;100431.02;1724800;83;21212;-63
2021/03/11 04:58:32;;;;;;;68.07;34.30;;;;;;;-6.56;71.69;100429.91;1725102;83;21214;-64
2021/03/11 05:01:00;;;;;;;61.55;30.40;;;;;;;-6.53;71.66;100438.05;1737345;82;21302;-64
2021/03/11 05:03:27;;;;;;;61.75;29.65;;;;;;;-6.50;71.61;100429.33;1748499;80;21172;-64
2021/03/11 05:05:55;;;;;;;58.65;29.50;;;;;;;-6.46;71.59;100428.05;1755247;82;21169;-64
2021/03/11 05:08:24;;;;;;;62.23;30.48;;;;;;;-6.36;71.34;100422.22;1750771;80;21192;-63
2021/03/11 05:10:52;;;;;;;60.63;30.15;;;;;;;-6.24;70.90;100429.48;1726474;82;21133;-64
2021/03/11 05:13:20;;;;;;;59.73;30.43;;;;;;;-6.13;70.57;100432.75;1702696;81;21205;-65
2021/03/11 05:15:49;;;;;;;58.00;29.23;;;;;;;-6.03;70.15;100434.53;1695410;84;21137;-64
2021/03/11 05:18:16;;;;;;;61.10;29.75;;;;;;;-5.91;69.74;100434.64;1677890;85;21631;-64
2021/03/11 05:20:44;;;;;;;55.83;29.82;;;;;;;-5.76;69.68;100431.80;1672526;85;21288;-64
2021/03/11 05:23:12;;;;;;;57.70;32.28;;;;;;;-5.64;69.29;100434.58;1692371;85;21173;-63
2021/03/11 05:25:39;;;;;;;53.02;30.37;;;;;;;-5.50;69.22;100434.55;1664790;86;21197;-66
2021/03/11 05:28:07;;;;;;;55.45;31.02;;;;;;;-5.41;68.66;100441.09;1740178;82;21537;-66
2021/03/11 05:30:34;;;;;;;54.67;28.23;;;;;;;-5.21;68.24;100438.59;1739028;82;21149;-64
2021/03/11 05:33:02;;;;;;;51.00;28.25;;;;;;;-5.10;67.63;100446.84;1740151;82;21197;-64
2021/03/11 05:35:29;;;;;;;51.92;25.68;;;;;;;-4.91;67.54;100443.98;1737023;82;21569;-65
2021/03/11 05:37:57;;;;;;;52.78;27.62;;;;;;;-4.67;66.99;100442.80;1729903;82;21136;-65
2021/03/11 05:40:24;;;;;;;43.08;24.30;;;;;;;-4.48;66.02;100441.75;1725204;82;21180;-65
2021/03/11 05:42:53;;;;;;;41.23;23.92;;;;;;;-4.35;65.08;100447.95;1739002;82;21373;-65
2021/03/11 05:45:20;;;;;;;42.67;25.32;;;;;;;-4.30;63.62;100438.53;1733604;82;21156;-65
2021/03/11 05:47:48;;;;;;;40.80;23.38;;;;;;;-4.25;63.46;100446.84;1725673;82;21584;-65
2021/03/11 05:50:15;;;;;;;43.08;24.12;;;;;;;-4.16;62.74;100447.72;1733391;82;21165;-65
2021/03/11 05:52:43;;;;;;;40.05;24.00;;;;;;;-4.02;62.97;100449.27;1736123;82;21161;-65
2021/03/11 05:55:11;;;;;;;38.30;22.17;;;;;;;-3.82;62.36;100449.83;1739027;82;21130;-65
2021/03/11 05:57:46;;;;;;;37.25;20.27;;;;;;;-3.60;61.82;100446.56;1739076;82;21173;-64
2021/03/11 06:00:16;;;;;;;35.63;21.02;;;;;;;-3.52;59.26;100449.23;1730906;82;21299;-65
2021/03/11 06:02:47;;;;;;;33.15;18.07;;;;;;;-3.38;59.55;100450.42;1728443;82;21192;-65
2021/03/11 06:05:15;;;;;;;35.60;20.05;;;;;;;-3.35;59.37;100425.28;1717345;83;21133;-65
2021/03/11 06:07:46;;;;;;;33.53;19.37;;;;;;;-2.99;58.63;100447.94;1724982;82;21185;-65
2021/03/11 06:10:17;;;;;;;37.78;17.87;;;;;;;-2.84;57.67;100450.26;1729119;82;21455;-65
2021/03/11 06:12:45;;;;;;;31.73;17.42;;;;;;;-2.74;56.89;100449.58;1741337;82;21150;-65
2021/03/11 06:15:24;;;;;;;35.63;18.07;;;;;;;-2.61;56.69;100459.70;1742874;82;21145;-64
2021/03/11 06:17:52;;;;;;;35.15;18.60;;;;;;;-2.42;56.07;100470.00;1716194;82;21177;-65
2021/03/11 06:20:19;;;;;;;29.57;16.77;;;;;;;-2.21;56.40;100468.94;1742806;82;21165;-65
2021/03/11 06:22:47;;;;;;;30.30;16.75;;;;;;;-1.98;55.03;100465.00;1742853;82;21177;-64
2021/03/11 06:25:16;;;;;;;38.28;18.80;;;;;;;-1.86;53.42;100465.46;1742813;82;21304;-64
2021/03/11 06:27:45;;;;;;;33.95;19.27;;;;;;;-1.87;54.03;100465.13;1738863;82;21198;-65
2021/03/11 06:30:29;;;;;;;32.35;18.67;;;;;;;-1.80;54.38;100466.09;1742955;82;21173;-66
2021/03/11 06:33:05;;;;;;;30.43;17.73;;;;;;;-1.65;53.84;100475.86;1775866;79;23170;-64
2021/03/11 06:35:34;;;;;;;33.95;17.70;;;;;;;-1.67;53.53;100471.72;1722711;83;21197;-63
2021/03/11 06:38:02;;;;;;;28.70;16.48;;;;;;;-1.60;53.46;100479.35;1722879;82;21169;-64
2021/03/11 06:40:30;;;;;;;29.02;17.12;;;;;;;-1.58;52.90;100475.98;1694783;83;21616;-64
2021/03/11 06:43:12;;;;;;;29.98;16.70;;;;;;;-1.60;52.73;100473.52;1722802;82;21580;-64
2021/03/11 06:45:39;;;;;;;29.77;17.15;;;;;;;-1.51;53.32;100476.95;1722684;82;21133;-64
2021/03/11 06:48:29;;;;;;;33.45;17.80;;;;;;;-1.42;53.06;100471.91;1722807;82;21158;-65
2021/03/11 06:50:57;;;;;;;29.63;16.27;;;;;;;-1.35;52.67;100476.03;1716090;83;21246;-65
2021/03/11 06:53:27;;;;;;;29.07;16.20;;;;;;;-1.25;52.11;100481.97;1717561;83;21193;-67
2021/03/11 06:55:54;;;;;;;29.52;16.23;;;;;;;-1.14;51.67;100486.41;1709668;83;21165;-62
2021/03/11 06:58:27;;;;;;;25.62;13.78;;;;;;;-1.01;51.50;100482.62;1694647;83;21609;-62
2021/03/11 07:01:08;;;;;;;25.72;15.48;;;;;;;-0.86;50.74;100485.34;1722648;83;21161;-62
2021/03/11 07:03:43;;;;;;;24.10;13.48;;;;;;;-0.67;50.64;100485.33;1721598;83;21210;-62
2021/03/11 07:06:12;;;;;;;23.02;12.28;;;;;;;-0.59;49.72;100492.78;1712672;83;21207;-63
2021/03/11 07:08:49;;;;;;;20.23;11.55;;;;;;;-0.42;49.62;100485.42;1689170;83;21141;-62
2021/03/11 07:11:17;;;;;;;20.23;11.40;;;;;;;-0.33;48.41;100486.18;1719808;83;21136;-61
2021/03/11 07:13:45;;;;;;;20.32;10.88;;;;;;;-0.27;48.76;100477.41;1705495;83;21758;-62
2021/03/11 07:16:22;;;;;;;16.90;9.65;;;;;;;-0.17;47.78;100484.15;1722389;83;21169;-61
2021/03/11 07:19:18;;;;;;;18.90;11.35;;;;;;;0.03;48.84;100484.94;1716595;83;21670;-63
2021/03/11 07:21:53;;;;;;;15.50;9.70;;;;;;;0.31;49.17;100490.78;1708522;84;21626;-61
2021/03/11 07:24:39;;;;;;;16.35;9.73;;;;;;;0.62;47.30;100489.17;1716747;82;21287;-62
2021/03/11 07:27:07;;;;;;;15.83;8.88;;;;;;;0.78;45.81;100491.61;1722947;83;21585;-63
2021/03/11 07:29:34;;;;;;;15.08;8.95;;;;;;;0.86;44.91;100494.68;1722522;83;21358;-63
2021/03/11 07:32:07;;;;;;;16.15;9.70;;;;;;;0.88;45.00;100496.17;1688345;83;21351;-66
2021/03/11 07:34:36;;;;;;;17.40;8.90;;;;;;;0.88;44.90;100495.34;1635804;87;21219;-66
2021/03/11 07:37:04;;;;;;;14.55;8.78;;;;;;;0.94;44.44;100494.06;1699197;84;21138;-67
2021/03/11 07:39:40;;;;;;;13.90;7.45;;;;;;;1.07;45.35;100494.69;1702696;84;21130;-65
2021/03/11 07:42:09;;;;;;;15.32;8.40;;;;;;;1.29;43.49;100497.68;1709454;84;21190;-65
2021/03/11 07:44:37;;;;;;;14.25;7.92;;;;;;;1.31;42.83;100489.45;1708772;82;21199;-66
2021/03/11 07:47:06;;;;;;;14.78;8.78;;;;;;;1.31;41.88;100492.94;1708757;84;21189;-64
2021/03/11 07:49:34;;;;;;;11.83;7.58;;;;;;;0.99;42.54;100485.45;1709174;82;21589;-65
2021/03/11 07:52:03;;;;;;;17.55;8.85;;;;;;;0.82;42.95;100488.03;1709003;83;21176;-66
2021/03/11 07:54:34;;;;;;;12.43;8.40;;;;;;;0.74;42.89;100485.50;1708990;82;21185;-65
2021/03/11 07:57:02;;;;;;;14.20;8.83;;;;;;;0.67;44.30;100496.16;1709159;84;21221;-66
2021/03/11 07:59:30;;;;;;;16.93;9.13;;;;;;;0.85;43.38;100491.70;1709419;82;21621;-64
2021/03/11 08:02:09;;;;;;;16.95;9.75;;;;;;;0.82;41.76;100485.36;1709211;84;21651;-65
2021/03/11 08:04:42;;;;;;;13.45;9.15;;;;;;;0.88;42.62;100489.98;1709527;82;21207;-62
2021/03/11 08:07:24;;;;;;;15.83;8.73;;;;;;;0.83;41.92;100483.84;1709493;84;21213;-65
2021/03/11 08:09:54;;;;;;;14.98;8.00;;;;;;;0.89;41.82;100484.41;1709475;82;21154;-64
2021/03/11 08:15:25;;;;;;;12.25;7.45;;;;;;;0.86;41.99;100471.39;1818753;79;22505;-64
2021/03/11 08:17:54;;;;;;;12.95;7.33;;;;;;;0.90;42.69;100477.20;1790232;80;21117;-65
2021/03/11 08:20:29;;;;;;;12.93;7.70;;;;;;;0.91;41.65;100475.68;1760955;81;21169;-65
2021/03/11 08:23:01;;;;;;;12.33;7.15;;;;;;;0.85;41.56;100475.08;1760977;80;21141;-65
2021/03/11 08:25:41;;;;;;;14.90;7.28;;;;;;;0.65;41.84;100467.86;1761037;81;21141;-64
2021/03/11 08:28:19;;;;;;;13.53;6.50;;;;;;;0.70;42.52;100462.78;1760928;80;21216;-66
2021/03/11 08:30:57;;;;;;;13.45;7.00;;;;;;;0.98;42.63;100467.70;1731112;81;21637;-64
2021/03/11 08:33:28;;;;;;;;;;;;;;;1.34;41.76;100465.75;1763537;80;21185;-63
2021/03/11 08:35:57;;;;;;;10.35;6.20;;;;;;;1.40;40.27;100463.63;1760930;81;20156;-64
2021/03/11 08:38:32;;;;;;;11.43;7.10;;;;;;;1.31;40.03;100464.77;1760754;80;21145;-63
2021/03/11 08:41:10;;;;;;;11.15;6.65;;;;;;;1.27;41.34;100460.02;1760927;81;21164;-64
2021/03/11 08:43:42;;;;;;;11.85;6.60;;;;;;;1.23;41.56;100458.23;1760838;80;21204;-64
2021/03/11 08:46:24;;;;;;;11.48;6.72;;;;;;;1.28;41.13;100451.75;1760883;81;21275;-65
2021/03/11 08:48:58;;;;;;;12.25;6.35;;;;;;;1.38;41.63;100448.75;1756868;80;21185;-64
2021/03/11 08:51:32;;;;;;;10.80;6.70;;;;;;;1.45;40.22;100450.98;1760806;81;21189;-65
2021/03/11 08:54:04;;;;;;;10.15;6.55;;;;;;;1.28;39.78;100460.31;1760941;80;21576;-65
2021/03/11 08:56:39;;;;;;;10.85;6.62;;;;;;;1.29;41.34;100456.11;1760795;81;21173;-64
2021/03/11 08:59:16;;;;;;;11.20;7.00;;;;;;;1.45;42.19;100446.95;1760820;80;21214;-64
2021/03/11 09:01:50;;;;;;;10.10;6.35;;;;;;;1.57;40.08;100441.34;1761017;81;21123;-63
2021/03/11 09:04:30;;;;;;;12.25;6.65;;;;;;;1.60;39.39;100442.80;1761059;80;21176;-63
2021/03/11 09:07:06;;;;;;;10.98;7.42;;;;;;;1.55;40.13;100444.75;1760627;81;21616;-64
2021/03/11 09:09:42;;;;;;;11.43;6.50;;;;;;;1.59;40.02;100443.33;1760804;80;21191;-64
2021/03/11 09:12:14;;;;;;;10.18;6.12;;;;;;;1.36;40.42;100440.89;1761015;81;21151;-63
2021/03/11 09:14:48;;;;;;;12.70;7.03;;;;;;;1.44;40.44;100454.16;1752148;80;21601;-63
2021/03/11 09:17:22;;;;;;;16.25;7.58;;;;;;;1.24;40.24;100455.84;1747326;82;21421;-63
2021/03/11 09:20:00;;;;;;;11.22;5.35;;;;;;;1.09;39.99;100462.33;1747342;81;21154;-63
2021/03/11 09:22:37;;;;;;;9.55;6.33;;;;;;;1.04;39.82;100460.72;1747455;82;21254;-63
2021/03/11 09:25:11;;;;;;;11.57;6.20;;;;;;;1.09;40.72;100456.97;1747632;81;21954;-62
2021/03/11 09:27:56;;;;;;;9.38;6.03;;;;;;;1.09;39.60;100456.45;1747529;82;21557;-62
2021/03/11 09:30:31;;;;;;;12.93;7.40;;;;;;;1.17;39.34;100452.81;1744076;82;21327;-62
2021/03/11 09:33:12;;;;;;;9.10;5.90;;;;;;;1.11;40.74;100450.37;1747258;81;21190;-64
2021/03/11 09:35:40;;;;;;;11.28;6.60;;;;;;;1.31;40.19;100464.77;1747345;82;21649;-64
2021/03/11 09:38:11;;;;;;;14.30;7.60;;;;;;;1.41;38.69;100445.68;1747255;81;21320;-64
2021/03/11 09:40:41;;;;;;;15.83;7.65;;;;;;;1.45;39.31;100460.37;1747322;82;21137;-64
2021/03/11 09:43:27;;;;;;;12.98;7.00;;;;;;;1.53;38.53;100449.46;1747186;81;21648;-63
2021/03/11 09:45:57;;;;;;;10.78;6.37;;;;;;;1.66;39.33;100447.39;1747296;82;21173;-63
2021/03/11 09:48:32;;;;;;;9.70;5.72;;;;;;;1.73;39.21;100448.27;1747148;81;21345;-63
2021/03/11 09:51:08;;;;;;;12.03;5.47;;;;;;;1.81;38.48;100454.80;1747317;82;21145;-64
2021/03/11 09:53:44;;;;;;;10.85;5.85;;;;;;;1.72;37.96;100443.92;1747055;81;21245;-63
2021/03/11 09:56:20;;;;;;;8.58;4.90;;;;;;;1.67;36.59;100442.32;1747389;82;21154;-64
2021/03/11 09:59:01;;;;;;;8.93;5.47;;;;;;;1.74;37.83;100440.00;1747283;81;21142;-63
2021/03/11 10:01:37;;;;;;;9.23;4.58;;;;;;;1.79;38.66;100440.76;1739414;82;21146;-64
2021/03/11 10:04:24;;;;;;;8.50;5.25;;;;;;;1.81;38.68;100449.43;1747089;81;21198;-63
2021/03/11 10:07:00;;;;;;;8.08;4.87;;;;;;;1.68;38.39;100450.19;1747225;82;21170;-64
2021/03/11 10:09:40;;;;;;;8.10;4.95;;;;;;;1.70;38.93;100444.64;1747091;81;21425;-63
2021/03/11 10:12:10;;;;;;;8.33;4.97;;;;;;;1.54;37.42;100440.39;1747092;82;21161;-63
2021/03/11 10:14:38;;;;;;;7.80;4.80;;;;;;;1.44;40.25;100434.55;1726562;82;21187;-64
2021/03/11 10:17:06;;;;;;;8.73;4.92;;;;;;;1.55;39.12;100438.55;1747165;82;21839;-64
2021/03/11 10:19:37;;;;;;;6.92;4.72;;;;;;;1.59;37.28;100443.33;1747145;81;21657;-64
2021/03/11 10:22:19;;;;;;;6.85;4.65;;;;;;;1.64;38.34;100436.84;1747197;82;21185;-64
2021/03/11 10:24:51;;;;;;;13.30;5.53;;;;;;;1.69;37.94;100436.27;1747238;81;21216;-63
2021/03/11 10:27:29;;;;;;;8.58;4.92;;;;;;;1.63;36.42;100424.44;1746752;82;21292;-64
2021/03/11 10:30:16;;;;;;;7.28;4.25;;;;;;;1.50;38.69;100419.00;1747090;81;21344;-64
2021/03/11 10:32:44;;;;;;;7.33;4.78;;;;;;;1.66;39.14;100413.34;1747222;82;21161;-64
2021/03/11 10:35:14;;;;;;;9.18;4.40;;;;;;;1.80;37.62;100414.23;1726346;82;21200;-63
2021/03/11 10:37:43;;;;;;;10.28;4.87;;;;;;;1.69;38.25;100422.84;1744232;82;21185;-64
2021/03/11 10:40:13;;;;;;;7.95;4.90;;;;;;;1.66;37.87;100420.05;1747279;82;21236;-64
2021/03/11 10:42:58;;;;;;;9.80;4.65;;;;;;;1.45;37.31;100420.13;1747227;82;21181;-63
2021/03/11 10:45:27;;;;;;;7.15;4.00;;;;;;;1.58;38.47;100414.83;1746939;82;21181;-64
2021/03/11 10:48:03;;;;;;;10.00;4.92;;;;;;;1.75;38.02;100412.14;1746494;81;21653;-63
2021/03/11 10:50:47;;;;;;;9.25;4.97;;;;;;;1.84;37.41;100404.77;1747573;82;21571;-63
2021/03/11 10:53:15;;;;;;;6.33;4.22;;;;;;;1.83;37.31;100394.53;1747215;81;21215;-64
2021/03/11 10:55:44;;;;;;;7.15;4.53;;;;;;;1.90;38.18;100402.61;1729145;80;21592;-65
2021/03/11 10:58:26;;;;;;;9.38;5.05;;;;;;;1.80;37.47;100391.42;1738956;82;21240;-62
2021/03/11 11:01:22;;;;;;;8.45;4.37;;;;;;;1.84;38.73;100403.42;1740689;82;21763;-63
2021/03/11 11:03:48;;;;;;;7.87;4.20;;;;;;;1.74;37.71;100397.56;1741200;82;21211;-62
2021/03/11 11:06:16;;;;;;;6.90;4.15;;;;;;;1.78;37.67;100395.63;1741059;82;21190;-63
2021/03/11 11:08:45;;;;;;;6.80;4.25;;;;;;;1.91;36.36;100387.62;1740996;82;21158;-62
2021/03/11 11:11:15;;;;;;;8.43;5.03;;;;;;;1.96;35.40;100386.53;1741245;82;21446;-63
2021/03/11 11:13:45;;;;;;;9.28;4.67;;;;;;;1.89;35.86;100380.81;1737813;81;21200;-67
2021/03/11 11:16:13;;;;;;;6.83;4.65;;;;;;;1.86;36.80;100376.68;1747254;82;21177;-66
2021/03/11 11:18:42;;;;;;;9.30;5.55;;;;;;;1.77;37.27;100375.17;1747098;81;21597;-67
2021/03/11 11:21:10;;;;;;;7.97;5.20;;;;;;;1.66;36.53;100377.11;1747255;82;21791;-65
2021/03/11 11:23:38;;;;;;;8.88;5.35;;;;;;;1.60;37.25;100367.66;1747214;81;21765;-65
2021/03/11 11:26:07;;;;;;;7.50;5.20;;;;;;;1.52;38.66;100356.59;1747296;82;21217;-63
2021/03/11 11:28:34;;;;;;;8.05;5.05;;;;;;;1.44;38.69;100354.89;1726035;82;21622;-63
2021/03/11 11:31:02;;;;;;;7.55;5.28;;;;;;;1.48;37.94;100361.53;1747052;82;21208;-63
2021/03/11 11:33:30;;;;;;;9.20;5.58;;;;;;;1.56;38.32;100375.27;1747302;81;21193;-63
2021/03/11 11:35:57;;;;;;;9.10;5.20;;;;;;;1.56;38.39;100361.85;1747150;82;21209;-62
2021/03/11 11:38:25;;;;;;;7.67;5.35;;;;;;;1.59;36.59;100360.14;1747058;81;21246;-64
2021/03/11 11:40:52;;;;;;;7.95;4.92;;;;;;;1.59;36.90;100355.28;1747053;82;21217;-65